S-y Atmosphere — ZCGY6 — position and weather

sailwx.info

Track history (hours):
 
Tides and Currents Weather Stations Pressure Air Temp Water Temp Dewpoint Dewpoint Depression Visibility Wind Speed Wind Dir Waves Ship Positions

S-y Atmosphere

Last reported at 2017-Sep-07 11:38 UTC. Time now 2017-Sep-23 18:27 UTC.
Position N 44°13' E 008°58'.
Warning: this ship's position is 16 days out of date.

Length 53 m; draft 4 m.

Type: Sailing vessel. MMSI: 319726000.

Date/timePositionNaut miles runAvg speedWind from/ knotsBaromVisibWave heightAir tempDewpointWater temp
2017-Sep-07 11:38N 44°13' E 008°58'110.9
2017-Sep-07 11:30N 44°13' E 008°60'610.8
2017-Sep-07 10:57N 44°16' E 009°07'5 0.2
2017-Sep-06 06:14N 44°17' E 009°15'210.4
2017-Sep-06 06:00N 44°15' E 009°15'510.4
2017-Sep-06 05:30N 44°10' E 009°17'510.9
2017-Sep-06 05:00N 44°04' E 009°19'611.0
2017-Sep-06 04:30N 43°59' E 009°20'611.0
2017-Sep-06 04:00N 43°54' E 009°22'510.8
2017-Sep-06 03:30N 43°48' E 009°24'510.8
2017-Sep-06 03:00N 43°43' E 009°26'510.9
2017-Sep-06 02:30N 43°38' E 009°28'510.9
2017-Sep-06 02:00N 43°32' E 009°30'  
Track history (hours):
 
Tides and Currents Weather Stations Pressure Air Temp Water Temp Dewpoint Dewpoint Depression Visibility Wind Speed Wind Dir Waves Ship Positions

S-y Atmosphere

Last reported at 2017-Sep-07 11:38 UTC. Time now 2017-Sep-23 18:27 UTC.
Position N 44°13' E 008°58'.
Warning: this ship's position is 16 days out of date.

Length 53 m; draft 4 m.

Type: Sailing vessel. MMSI: 319726000.

Date/timePositionNaut miles runAvg speedWind from/ knotsBaromVisibWave heightAir tempDewpointWater temp
2017-Sep-07 11:38N 44°13' E 008°58'110.9
2017-Sep-07 11:30N 44°13' E 008°60'610.8
2017-Sep-07 10:57N 44°16' E 009°07'5 0.2
2017-Sep-06 06:14N 44°17' E 009°15'210.4
2017-Sep-06 06:00N 44°15' E 009°15'510.4
2017-Sep-06 05:30N 44°10' E 009°17'510.9
2017-Sep-06 05:00N 44°04' E 009°19'611.0
2017-Sep-06 04:30N 43°59' E 009°20'611.0
2017-Sep-06 04:00N 43°54' E 009°22'510.8
2017-Sep-06 03:30N 43°48' E 009°24'510.8
2017-Sep-06 03:00N 43°43' E 009°26'510.9
2017-Sep-06 02:30N 43°38' E 009°28'510.9
2017-Sep-06 02:00N 43°32' E 009°30'  

Dump ship's entire track history